Time;durP1;ratioP1;P1;durP2;ratioP2;P2;SDS_P1;SDS_P2;PMS_P1;PMS_P2;Temp;Humidity;BMP_temperature;BMP_pressure;BME280_temperature;BME280_humidity;BME280_pressure;Samples;Min_cycle;Max_cycle;Signal;HPM_P1;HPM_P2
2022/02/24 00:01:42;;;;;;;4.47;3.17;;;0.20;99.90;;;;;;5037914;28;20206;-33
2022/02/24 00:04:08;;;;;;;8.15;3.50;;;0.30;99.90;;;;;;5031534;28;20494;-33
2022/02/24 00:06:34;;;;;;;2.60;2.38;;;0.30;99.90;;;;;;5034614;28;20576;-33
2022/02/24 00:08:59;;;;;;;5.75;3.45;;;0.30;99.90;;;;;;5037074;28;20520;-33
2022/02/24 00:11:25;;;;;;;4.68;2.55;;;0.20;99.90;;;;;;5035511;28;20037;-33
2022/02/24 00:13:50;;;;;;;2.97;2.65;;;0.20;99.90;;;;;;5035886;28;20147;-33
2022/02/24 00:16:16;;;;;;;3.85;2.83;;;0.00;99.90;;;;;;5032276;28;20366;-32
2022/02/24 00:18:42;;;;;;;4.07;3.40;;;0.00;99.90;;;;;;5038040;28;20131;-33
2022/02/24 00:21:07;;;;;;;5.13;3.10;;;0.10;99.90;;;;;;5033577;28;20032;-33
2022/02/24 00:23:33;;;;;;;3.72;2.50;;;0.20;99.90;;;;;;5035238;28;20980;-33
2022/02/24 00:25:59;;;;;;;3.97;1.98;;;0.20;99.90;;;;;;5036872;28;20029;-32
2022/02/24 00:28:24;;;;;;;4.05;2.70;;;0.10;99.90;;;;;;5034182;28;20143;-32
2022/02/24 00:30:50;;;;;;;6.38;2.72;;;0.10;99.90;;;;;;5037547;28;20095;-33
2022/02/24 00:33:15;;;;;;;2.58;2.30;;;0.00;99.90;;;;;;5035915;28;20036;-33
2022/02/24 00:35:41;;;;;;;10.18;4.25;;;0.00;99.90;;;;;;5037844;28;20052;-33
2022/02/24 00:38:07;;;;;;;3.55;3.17;;;0.00;99.90;;;;;;5035179;28;20040;-32
2022/02/24 00:40:32;;;;;;;2.95;2.65;;;0.00;99.90;;;;;;5035113;28;20052;-32
2022/02/24 00:42:58;;;;;;;4.93;2.28;;;-0.10;99.90;;;;;;5034674;28;20048;-33
2022/02/24 00:45:24;;;;;;;3.30;2.10;;;-0.10;99.90;;;;;;5038345;28;20028;-32
2022/02/24 00:47:49;;;;;;;2.63;2.42;;;-0.30;99.90;;;;;;5042557;28;20029;-32
2022/02/24 00:50:15;;;;;;;2.67;2.53;;;-0.40;99.90;;;;;;5038696;28;20038;-33
2022/02/24 00:52:40;;;;;;;5.10;3.42;;;-0.50;99.90;;;;;;5042774;28;20055;-32
2022/02/24 00:55:07;;;;;;;4.68;3.40;;;-0.50;99.90;;;;;;5040071;28;20029;-33
2022/02/24 00:57:32;;;;;;;4.70;2.95;;;-0.50;99.90;;;;;;5040191;28;20029;-33
2022/02/24 00:59:58;;;;;;;6.55;3.85;;;-0.40;99.90;;;;;;5039544;28;20028;-33
2022/02/24 01:02:23;;;;;;;7.40;3.63;;;-0.30;99.90;;;;;;5040091;28;20129;-32
2022/02/24 01:04:49;;;;;;;6.72;3.70;;;-0.30;99.90;;;;;;5039200;28;20390;-32
2022/02/24 01:07:14;;;;;;;5.80;3.28;;;-0.10;99.90;;;;;;5040911;28;20756;-32
2022/02/24 01:09:40;;;;;;;7.40;3.53;;;-0.10;99.90;;;;;;5038727;28;20033;-34
2022/02/24 01:12:06;;;;;;;4.95;2.88;;;-0.10;99.90;;;;;;5042733;28;20029;-33
2022/02/24 01:14:32;;;;;;;3.65;2.97;;;-0.10;99.90;;;;;;5040858;28;20033;-33
2022/02/24 01:16:57;;;;;;;2.65;2.28;;;-0.10;99.90;;;;;;5039812;28;20104;-33
2022/02/24 01:19:23;;;;;;;4.07;2.50;;;0.00;99.90;;;;;;5042683;28;20033;-32
2022/02/24 01:21:48;;;;;;;2.58;2.03;;;-0.10;99.90;;;;;;5044263;28;20095;-32
2022/02/24 01:24:14;;;;;;;2.30;2.10;;;-0.10;99.90;;;;;;5037151;28;20208;-35
2022/02/24 01:26:40;;;;;;;2.78;2.47;;;-0.10;99.90;;;;;;5044688;28;20045;-34
2022/02/24 01:29:05;;;;;;;2.70;2.45;;;-0.10;99.90;;;;;;5046857;28;20024;-32
2022/02/24 01:31:31;;;;;;;3.30;3.00;;;-0.10;99.90;;;;;;5047236;28;20117;-33
2022/02/24 01:33:57;;;;;;;3.92;2.17;;;-0.10;99.90;;;;;;5040522;28;20040;-33
2022/02/24 01:36:22;;;;;;;2.03;1.85;;;-0.30;99.90;;;;;;5045641;28;20017;-32
2022/02/24 01:38:48;;;;;;;3.65;2.75;;;-0.40;99.90;;;;;;5058110;28;20016;-32
2022/02/24 01:41:14;;;;;;;2.50;2.17;;;-0.40;99.90;;;;;;5042670;28;20071;-32
2022/02/24 01:43:44;;;;;;;5.40;2.13;;;-0.30;99.90;;;;;;5048552;28;20029;-32
2022/02/24 01:46:10;;;;;;;4.32;1.70;;;-0.30;99.90;;;;;;5044513;28;20018;-35
2022/02/24 01:48:35;;;;;;;4.18;3.25;;;-0.30;99.90;;;;;;5038836;28;20032;-32
2022/02/24 01:51:01;;;;;;;3.95;2.70;;;-0.30;99.90;;;;;;5044417;28;20029;-33
2022/02/24 01:53:27;;;;;;;3.20;2.78;;;-0.30;99.90;;;;;;5044552;28;20041;-33
2022/02/24 01:55:52;;;;;;;3.35;2.70;;;-0.30;99.90;;;;;;5043609;28;20103;-33
2022/02/24 01:58:18;;;;;;;3.05;2.00;;;-0.30;99.90;;;;;;5042967;28;20029;-32
2022/02/24 02:00:44;;;;;;;2.67;2.13;;;-0.30;99.90;;;;;;5048338;28;20045;-39
2022/02/24 02:03:10;;;;;;;3.33;1.83;;;-0.20;99.90;;;;;;5048813;28;20033;-39
2022/02/24 02:05:36;;;;;;;4.50;2.45;;;-0.20;99.90;;;;;;5048318;28;20328;-39
2022/02/24 02:08:03;;;;;;;2.85;2.60;;;-0.20;99.90;;;;;;5044147;28;20482;-37
2022/02/24 02:10:29;;;;;;;4.95;2.85;;;-0.20;99.90;;;;;;5043007;28;20390;-39
2022/02/24 02:12:55;;;;;;;3.95;2.80;;;-0.20;99.90;;;;;;5045882;28;20037;-37
2022/02/24 02:15:21;;;;;;;2.42;2.20;;;-0.20;99.90;;;;;;5041926;28;20496;-40
2022/02/24 02:17:48;;;;;;;4.22;2.90;;;-0.20;99.90;;;;;;5049348;28;20036;-39
2022/02/24 02:20:13;;;;;;;3.78;2.13;;;-0.30;99.90;;;;;;5044373;28;20084;-36
2022/02/24 02:22:40;;;;;;;14.85;2.65;;;-0.30;99.90;;;;;;5046411;28;20053;-38
2022/02/24 02:25:07;;;;;;;2.10;2.00;;;-0.40;99.90;;;;;;5046457;28;20029;-38
2022/02/24 02:27:35;;;;;;;5.20;2.55;;;-0.60;99.90;;;;;;5048278;28;20490;-36
2022/02/24 02:30:01;;;;;;;5.57;2.25;;;-0.60;99.90;;;;;;5052890;28;20046;-37
2022/02/24 02:32:27;;;;;;;2.22;2.08;;;-0.60;99.90;;;;;;5043978;28;20029;-36
2022/02/24 02:34:53;;;;;;;2.47;2.28;;;-0.90;99.90;;;;;;5049383;28;20028;-39
2022/02/24 02:37:18;;;;;;;2.45;2.25;;;-0.90;99.90;;;;;;5049038;28;20032;-38
2022/02/24 02:39:45;;;;;;;3.40;2.90;;;-0.90;99.90;;;;;;5044299;28;20048;-37
2022/02/24 02:42:11;;;;;;;3.97;2.58;;;-0.90;99.90;;;;;;5039052;28;20073;-37
2022/02/24 02:44:37;;;;;;;3.08;2.50;;;-0.80;99.90;;;;;;5043021;28;20063;-37
2022/02/24 02:47:02;;;;;;;1.95;1.88;;;-0.70;99.90;;;;;;5044163;28;20032;-37
2022/02/24 02:49:28;;;;;;;2.72;2.50;;;-0.80;99.90;;;;;;5042124;28;20028;-36
2022/02/24 02:51:54;;;;;;;3.22;2.90;;;-1.00;99.90;;;;;;5044828;28;20033;-38
2022/02/24 02:54:20;;;;;;;5.28;3.05;;;-1.00;99.90;;;;;;5038993;28;20035;-36
2022/02/24 02:56:46;;;;;;;3.67;2.97;;;-1.10;99.90;;;;;;5043831;28;20040;-40
2022/02/24 02:59:14;;;;;;;3.50;2.15;;;-1.10;99.90;;;;;;5041617;28;20037;-39
2022/02/24 03:01:40;;;;;;;3.05;2.83;;;-1.20;99.90;;;;;;5041846;28;20038;-38
2022/02/24 03:04:05;;;;;;;2.80;2.20;;;-1.20;99.90;;;;;;5045458;28;20039;-38
2022/02/24 03:06:31;;;;;;;4.45;3.47;;;-1.10;99.90;;;;;;5043913;28;20064;-39
2022/02/24 03:08:56;;;;;;;2.83;2.63;;;-1.00;99.90;;;;;;5043724;28;20036;-39
2022/02/24 03:11:22;;;;;;;2.72;2.38;;;-0.90;99.90;;;;;;5042633;28;20025;-39
2022/02/24 03:13:48;;;;;;;3.97;2.42;;;-0.90;99.90;;;;;;5039997;28;20091;-39
2022/02/24 03:16:13;;;;;;;3.70;2.70;;;-0.80;99.90;;;;;;5042124;28;20021;-38
2022/02/24 03:18:39;;;;;;;2.90;2.60;;;-0.80;99.90;;;;;;5045916;28;20065;-38
2022/02/24 03:21:05;;;;;;;2.42;2.33;;;-0.80;99.90;;;;;;5042375;28;20071;-39
2022/02/24 03:23:30;;;;;;;2.70;2.53;;;-0.80;99.90;;;;;;5065286;28;20025;-37
2022/02/24 03:25:56;;;;;;;5.82;2.30;;;-0.90;99.90;;;;;;5043452;28;20028;-38
2022/02/24 03:28:21;;;;;;;3.13;2.92;;;-0.90;99.90;;;;;;5042441;28;20089;-37
2022/02/24 03:30:47;;;;;;;2.00;1.67;;;-1.00;99.90;;;;;;5038668;28;20083;-39
2022/02/24 03:33:13;;;;;;;4.22;2.75;;;-1.30;99.90;;;;;;5045435;28;20624;-37
2022/02/24 03:35:43;;;;;;;2.08;1.70;;;-1.30;99.90;;;;;;5044184;28;20055;-39
2022/02/24 03:38:08;;;;;;;5.03;2.33;;;-1.40;99.90;;;;;;5044125;28;20132;-37
2022/02/24 03:40:34;;;;;;;1.60;1.52;;;-1.40;99.90;;;;;;5042114;28;20524;-38
2022/02/24 03:43:00;;;;;;;2.05;1.92;;;-1.60;99.90;;;;;;5041349;28;20449;-38
2022/02/24 03:45:26;;;;;;;2.70;2.35;;;-1.50;99.90;;;;;;5044058;28;20111;-40
2022/02/24 03:47:51;;;;;;;2.30;1.42;;;-1.40;99.90;;;;;;5042475;28;20032;-36
2022/02/24 03:50:18;;;;;;;2.30;1.75;;;-1.30;99.90;;;;;;5039275;28;20084;-39
2022/02/24 03:52:44;;;;;;;4.00;2.13;;;-1.30;99.90;;;;;;5043902;28;20054;-37
2022/02/24 03:55:10;;;;;;;5.20;3.13;;;-1.30;99.90;;;;;;5042573;28;20028;-38
2022/02/24 03:57:36;;;;;;;2.50;2.30;;;-1.10;99.90;;;;;;5042971;28;20024;-40
2022/02/24 04:00:04;;;;;;;2.50;2.03;;;-1.10;99.90;;;;;;5039315;28;20033;-38
2022/02/24 04:02:29;;;;;;;3.42;2.47;;;-1.10;99.90;;;;;;5049128;28;20391;-36
2022/02/24 04:04:55;;;;;;;2.42;2.22;;;-1.10;99.90;;;;;;5041271;28;20167;-37
2022/02/24 04:07:20;;;;;;;2.22;2.05;;;-1.10;99.90;;;;;;5037885;28;20342;-39
2022/02/24 04:09:46;;;;;;;3.65;1.70;;;-1.10;99.90;;;;;;5043915;28;20859;-40
2022/02/24 04:12:15;;;;;;;2.05;1.88;;;-1.20;99.90;;;;;;5076923;28;20044;-40
2022/02/24 04:14:42;;;;;;;5.88;1.98;;;-1.20;99.90;;;;;;5039221;28;20137;-38
2022/02/24 04:17:08;;;;;;;2.47;2.30;;;-1.10;99.90;;;;;;5045178;28;20017;-37
2022/02/24 04:19:33;;;;;;;2.45;2.25;;;-1.20;99.90;;;;;;5043929;28;20045;-39
2022/02/24 04:21:59;;;;;;;2.40;2.15;;;-1.30;99.90;;;;;;5042161;28;20032;-37
2022/02/24 04:24:24;;;;;;;2.05;1.92;;;-1.30;99.90;;;;;;5043049;28;20033;-36
2022/02/24 04:26:50;;;;;;;3.70;2.35;;;-1.40;99.90;;;;;;5044017;28;20040;-36
2022/02/24 04:29:16;;;;;;;2.60;2.35;;;-1.50;99.90;;;;;;5042359;28;20524;-38
2022/02/24 04:31:41;;;;;;;3.53;1.95;;;-1.50;99.90;;;;;;5040792;28;20124;-37
2022/02/24 04:34:07;;;;;;;3.08;2.58;;;-1.50;99.90;;;;;;5040265;28;20025;-37
2022/02/24 04:36:33;;;;;;;2.75;2.55;;;-1.50;99.90;;;;;;5045435;28;20056;-36
2022/02/24 04:38:58;;;;;;;2.95;2.30;;;-1.40;99.90;;;;;;5040900;28;20071;-40
2022/02/24 04:41:24;;;;;;;2.15;1.80;;;-1.30;99.90;;;;;;5040518;28;20044;-37
2022/02/24 04:43:49;;;;;;;3.92;2.72;;;-1.30;99.90;;;;;;5042752;28;20033;-36
2022/02/24 04:46:15;;;;;;;1.98;1.88;;;-1.30;99.90;;;;;;5043533;28;20036;-39
2022/02/24 04:48:41;;;;;;;3.08;2.88;;;-1.30;99.90;;;;;;5043518;28;20032;-36
2022/02/24 04:51:07;;;;;;;3.45;2.47;;;-1.20;99.90;;;;;;5045079;28;20029;-36
2022/02/24 04:53:32;;;;;;;3.10;2.28;;;-1.20;99.90;;;;;;5038340;28;20797;-37
2022/02/24 04:55:58;;;;;;;5.82;3.55;;;-1.20;99.90;;;;;;5070906;28;20643;-37
2022/02/24 04:58:24;;;;;;;2.42;2.22;;;-1.20;99.90;;;;;;5041298;28;20105;-37
2022/02/24 05:00:49;;;;;;;3.70;2.70;;;-1.10;99.90;;;;;;5039283;28;20037;-37
2022/02/24 05:03:15;;;;;;;2.13;1.92;;;-1.10;99.90;;;;;;5044890;28;20401;-36
2022/02/24 05:05:42;;;;;;;2.63;2.15;;;-1.00;99.90;;;;;;5038193;28;20058;-40
2022/02/24 05:08:09;;;;;;;2.88;2.58;;;-1.10;99.90;;;;;;5038160;28;20037;-38
2022/02/24 05:10:34;;;;;;;4.03;2.63;;;-1.00;99.90;;;;;;5041508;28;20017;-39
2022/02/24 05:13:00;;;;;;;4.32;2.38;;;-1.00;99.90;;;;;;5043818;28;20528;-36
2022/02/24 05:15:25;;;;;;;3.25;2.50;;;-1.00;99.90;;;;;;5037803;28;20032;-40
2022/02/24 05:17:51;;;;;;;4.30;2.83;;;-1.00;99.90;;;;;;5038707;28;20048;-39
2022/02/24 05:20:17;;;;;;;2.45;2.20;;;-1.20;99.90;;;;;;5045827;28;20025;-40
2022/02/24 05:22:43;;;;;;;3.10;2.80;;;-1.20;99.90;;;;;;5044372;28;20158;-40
2022/02/24 05:25:14;;;;;;;4.18;2.42;;;-1.20;99.90;;;;;;5040903;28;20045;-37
2022/02/24 05:27:42;;;;;;;3.83;2.80;;;-1.20;99.90;;;;;;5041348;28;20059;-37
2022/02/24 05:30:10;;;;;;;7.03;3.35;;;-1.30;99.90;;;;;;5040504;28;20599;-37
2022/02/24 05:32:35;;;;;;;2.37;2.20;;;-1.30;99.90;;;;;;5040199;28;20128;-39
2022/02/24 05:35:01;;;;;;;2.88;2.45;;;-1.30;99.90;;;;;;5043380;28;20119;-39
2022/02/24 05:37:27;;;;;;;4.50;2.97;;;-1.30;99.90;;;;;;5039078;28;20482;-37
2022/02/24 05:39:54;;;;;;;4.68;2.58;;;-1.30;99.90;;;;;;5044250;28;20025;-38
2022/02/24 05:42:20;;;;;;;2.60;2.40;;;-1.20;99.90;;;;;;5038176;28;20052;-39
2022/02/24 05:44:46;;;;;;;3.10;2.80;;;-1.20;99.90;;;;;;5041254;28;20485;-36
2022/02/24 05:47:12;;;;;;;2.88;2.63;;;-1.10;99.90;;;;;;5041853;28;20025;-40
2022/02/24 05:49:38;;;;;;;6.57;2.92;;;-1.10;99.90;;;;;;5046646;28;20021;-40
2022/02/24 05:52:05;;;;;;;2.80;2.60;;;-1.20;99.90;;;;;;5044375;28;20025;-39
2022/02/24 05:54:31;;;;;;;2.63;1.60;;;-1.20;99.90;;;;;;5041886;28;20083;-39
2022/02/24 05:56:57;;;;;;;2.70;2.45;;;-1.30;99.90;;;;;;5040751;28;20397;-36
2022/02/24 05:59:22;;;;;;;3.15;2.70;;;-1.40;99.90;;;;;;5039605;28;20386;-37
2022/02/24 06:01:48;;;;;;;2.58;2.03;;;-1.40;99.90;;;;;;5039254;28;20409;-40
2022/02/24 06:04:14;;;;;;;2.53;2.40;;;-1.50;99.90;;;;;;5042920;28;20029;-38
2022/02/24 06:06:40;;;;;;;1.90;1.80;;;-1.50;99.90;;;;;;5045346;28;20064;-40
2022/02/24 06:09:05;;;;;;;4.60;2.80;;;-1.50;99.90;;;;;;5035837;28;20063;-39
2022/02/24 06:11:31;;;;;;;6.60;3.55;;;-1.60;99.90;;;;;;5037165;28;20563;-38
2022/02/24 06:13:57;;;;;;;13.35;2.85;;;-1.50;99.90;;;;;;5043739;28;20470;-36
2022/02/24 06:16:22;;;;;;;11.77;3.88;;;-1.50;99.90;;;;;;5041391;28;20029;-39
2022/02/24 06:18:48;;;;;;;3.88;3.00;;;-1.50;99.90;;;;;;5040515;28;20029;-40
2022/02/24 06:21:16;;;;;;;4.47;3.40;;;-1.40;99.90;;;;;;5039143;28;20041;-39
2022/02/24 06:23:42;;;;;;;4.57;3.33;;;-1.40;99.90;;;;;;5040302;28;20475;-39
2022/02/24 06:26:08;;;;;;;4.00;3.45;;;-1.40;99.90;;;;;;5052582;28;20076;-37
2022/02/24 06:28:34;;;;;;;3.70;3.40;;;-1.30;99.90;;;;;;5035602;28;20037;-39
2022/02/24 06:30:59;;;;;;;2.40;2.20;;;-1.20;99.90;;;;;;5045352;28;20056;-39
2022/02/24 06:33:25;;;;;;;4.65;3.20;;;-1.10;99.90;;;;;;5042953;28;20040;-39
2022/02/24 06:35:51;;;;;;;3.38;3.13;;;-1.10;99.90;;;;;;5040896;28;20037;-38
2022/02/24 06:38:16;;;;;;;5.45;3.33;;;-1.00;99.90;;;;;;5044013;28;20556;-36
2022/02/24 06:40:42;;;;;;;6.88;4.05;;;-0.90;99.90;;;;;;5041690;28;20041;-37
2022/02/24 06:43:08;;;;;;;3.63;2.90;;;-0.90;99.90;;;;;;5045378;28;20441;-38
2022/02/24 06:45:33;;;;;;;3.67;3.38;;;-0.80;99.90;;;;;;5043396;28;20071;-39
2022/02/24 06:47:59;;;;;;;5.78;2.08;;;-0.90;99.90;;;;;;5044996;28;20032;-36
2022/02/24 06:50:25;;;;;;;5.45;3.45;;;-1.00;99.90;;;;;;5040613;28;20130;-39
2022/02/24 06:52:50;;;;;;;2.55;2.20;;;-0.90;99.90;;;;;;5038100;28;20116;-39
2022/02/24 06:55:16;;;;;;;3.35;2.85;;;-0.90;99.90;;;;;;5045956;28;20039;-39
2022/02/24 06:57:53;;;;;;;3.78;2.70;;;-0.90;99.90;;;;;;5037364;28;20714;-39
2022/02/24 07:00:21;;;;;;;4.17;3.13;;;-0.90;99.90;;;;;;5041835;28;21833;-37
2022/02/24 07:02:47;;;;;;;4.40;2.88;;;-0.90;99.90;;;;;;5044856;28;20037;-39
2022/02/24 07:05:13;;;;;;;4.55;3.70;;;-0.80;99.90;;;;;;5038690;28;20095;-39
2022/02/24 07:07:39;;;;;;;6.18;3.78;;;-0.70;99.90;;;;;;5043930;28;20111;-39
2022/02/24 07:10:08;;;;;;;3.08;2.55;;;-0.60;99.90;;;;;;5039667;28;20044;-39
2022/02/24 07:12:35;;;;;;;5.70;3.13;;;-0.60;99.90;;;;;;5039914;28;20052;-39
2022/02/24 07:15:00;;;;;;;5.15;3.33;;;-0.60;99.90;;;;;;5044081;28;20040;-37
2022/02/24 07:17:26;;;;;;;5.47;2.85;;;-0.60;99.90;;;;;;5041284;28;20038;-36
2022/02/24 07:19:52;;;;;;;2.80;2.60;;;-0.60;99.90;;;;;;5042479;28;20490;-39
2022/02/24 07:22:17;;;;;;;10.27;3.75;;;-0.60;99.90;;;;;;5039158;28;20062;-39
2022/02/24 07:24:43;;;;;;;6.90;3.00;;;-0.60;99.90;;;;;;5039436;28;20033;-39
2022/02/24 07:27:09;;;;;;;4.90;3.60;;;-0.50;99.90;;;;;;5042753;28;20857;-37
2022/02/24 07:29:34;;;;;;;3.47;2.78;;;-0.50;99.90;;;;;;5040887;28;20107;-37
2022/02/24 07:32:00;;;;;;;5.07;3.35;;;-0.40;99.90;;;;;;5042147;28;20505;-39
2022/02/24 07:34:25;;;;;;;4.82;2.85;;;-0.40;99.90;;;;;;5042967;28;20099;-39
2022/02/24 07:36:51;;;;;;;6.45;3.40;;;-0.30;99.90;;;;;;5042311;28;20159;-39
2022/02/24 07:39:20;;;;;;;3.13;2.90;;;-0.30;99.90;;;;;;5043147;28;20021;-39
2022/02/24 07:41:47;;;;;;;9.93;3.63;;;-0.20;99.90;;;;;;5040461;28;20044;-39
2022/02/24 07:44:14;;;;;;;3.90;2.95;;;-0.20;99.90;;;;;;5044475;28;20033;-39
2022/02/24 07:46:40;;;;;;;4.18;2.97;;;-0.20;99.90;;;;;;5039754;28;20487;-39
2022/02/24 07:49:05;;;;;;;2.40;2.25;;;-0.10;99.90;;;;;;5041072;28;20029;-39
2022/02/24 07:51:31;;;;;;;3.55;3.05;;;-0.10;99.90;;;;;;5039989;28;20260;-39
2022/02/24 07:53:57;;;;;;;4.90;3.22;;;0.00;99.90;;;;;;5041467;28;20028;-37
2022/02/24 07:56:23;;;;;;;5.03;3.92;;;0.00;99.90;;;;;;5038502;28;20379;-39
2022/02/24 07:58:48;;;;;;;2.45;2.33;;;0.10;99.90;;;;;;5040684;28;20037;-39
2022/02/24 08:01:15;;;;;;;6.18;3.92;;;0.10;99.90;;;;;;5039362;28;20178;-39
2022/02/24 08:03:41;;;;;;;7.00;3.67;;;0.20;99.90;;;;;;5036001;28;20032;-38
2022/02/24 08:06:06;;;;;;;5.47;3.25;;;0.20;99.90;;;;;;5040151;28;20526;-37
2022/02/24 08:08:32;;;;;;;3.60;3.08;;;0.30;99.90;;;;;;5037260;28;20025;-39
2022/02/24 08:10:57;;;;;;;5.00;3.47;;;0.40;99.90;;;;;;5043389;28;20033;-38
2022/02/24 08:13:23;;;;;;;6.65;3.38;;;0.50;99.90;;;;;;5042431;28;20100;-39
2022/02/24 08:15:49;;;;;;;9.52;4.07;;;0.50;99.90;;;;;;5040638;28;20021;-37
2022/02/24 08:18:15;;;;;;;8.00;4.50;;;0.70;99.90;;;;;;5041866;28;20068;-40
2022/02/24 08:20:41;;;;;;;4.43;3.58;;;0.80;99.90;;;;;;5041395;28;20029;-39
2022/02/24 08:23:06;;;;;;;6.60;3.95;;;0.90;99.90;;;;;;5031663;28;20326;-39
2022/02/24 08:25:33;;;;;;;7.35;3.95;;;1.00;99.90;;;;;;5043575;28;20021;-39
2022/02/24 08:27:59;;;;;;;3.92;3.03;;;1.10;99.90;;;;;;5037157;28;20719;-38
2022/02/24 08:30:25;;;;;;;5.25;3.72;;;1.30;99.90;;;;;;5035063;28;20655;-39
2022/02/24 08:32:52;;;;;;;5.35;3.47;;;1.40;99.90;;;;;;5042911;28;20111;-37
2022/02/24 08:35:19;;;;;;;6.45;4.40;;;1.50;99.90;;;;;;5036791;28;20029;-38
2022/02/24 08:37:49;;;;;;;5.90;3.33;;;1.60;99.90;;;;;;5043458;28;20111;-36
2022/02/24 08:40:21;;;;;;;4.95;3.80;;;1.80;99.90;;;;;;5041065;28;20052;-37
2022/02/24 08:42:48;;;;;;;4.80;4.30;;;1.90;99.90;;;;;;5043411;28;20033;-36
2022/02/24 08:45:13;;;;;;;4.63;4.05;;;2.20;99.90;;;;;;5037600;28;20036;-39
2022/02/24 08:47:40;;;;;;;2.72;2.35;;;2.30;99.90;;;;;;5041706;28;20079;-39
2022/02/24 08:50:08;;;;;;;3.58;3.22;;;2.50;99.90;;;;;;5039168;28;20067;-39
2022/02/24 08:52:34;;;;;;;5.03;3.47;;;2.60;99.90;;;;;;5041999;28;20087;-39
2022/02/24 08:55:00;;;;;;;7.65;3.72;;;2.80;99.90;;;;;;5041119;28;20037;-39
2022/02/24 08:57:25;;;;;;;2.90;2.63;;;2.90;99.90;;;;;;5037251;28;20204;-39
2022/02/24 08:59:51;;;;;;;5.18;3.75;;;3.00;99.90;;;;;;5041924;28;20025;-38
2022/02/24 09:02:17;;;;;;;5.00;3.75;;;3.10;99.90;;;;;;5043612;28;20515;-39
2022/02/24 09:04:43;;;;;;;4.90;3.72;;;3.30;99.90;;;;;;5041047;28;20033;-39
2022/02/24 09:07:09;;;;;;;5.20;3.60;;;3.50;99.90;;;;;;5037195;28;20236;-39
2022/02/24 09:09:34;;;;;;;4.95;3.33;;;3.70;99.90;;;;;;5043064;28;20473;-39
2022/02/24 09:12:01;;;;;;;3.33;3.03;;;4.00;99.90;;;;;;5035317;28;20194;-39
2022/02/24 09:14:27;;;;;;;2.00;1.80;;;4.20;99.90;;;;;;5042751;28;20024;-39
2022/02/24 09:16:53;;;;;;;3.25;3.03;;;4.40;99.90;;;;;;5039866;28;20043;-39
2022/02/24 09:19:19;;;;;;;3.03;2.40;;;4.60;99.90;;;;;;5039180;28;20029;-39
2022/02/24 09:21:44;;;;;;;4.35;3.95;;;4.80;99.90;;;;;;5045922;28;20530;-37
2022/02/24 09:24:10;;;;;;;3.45;3.13;;;5.00;99.90;;;;;;5046646;28;20068;-37
2022/02/24 09:26:36;;;;;;;2.65;2.45;;;5.20;99.90;;;;;;5040787;28;20044;-39
2022/02/24 09:29:03;;;;;;;3.40;2.40;;;5.30;99.90;;;;;;5044460;28;20332;-37
2022/02/24 09:31:29;;;;;;;2.80;2.40;;;5.50;99.90;;;;;;5035494;28;20131;-35
2022/02/24 09:33:55;;;;;;;4.00;2.22;;;5.70;99.90;;;;;;5041368;28;20064;-37
2022/02/24 09:36:21;;;;;;;2.70;2.15;;;5.90;99.90;;;;;;5041345;28;20142;-39
2022/02/24 09:38:46;;;;;;;3.58;2.17;;;6.10;99.90;;;;;;5040467;28;20477;-38
2022/02/24 09:41:14;;;;;;;2.72;2.35;;;6.20;99.90;;;;;;5043713;28;20116;-35
2022/02/24 09:43:40;;;;;;;4.05;2.45;;;6.40;99.90;;;;;;5038408;28;20047;-37
2022/02/24 09:46:10;;;;;;;2.88;2.30;;;6.60;99.90;;;;;;5040777;28;20098;-39
2022/02/24 09:48:42;;;;;;;3.53;2.50;;;6.80;99.90;;;;;;5041518;28;20021;-39
2022/02/24 09:51:11;;;;;;;2.85;2.55;;;7.00;99.90;;;;;;5040617;28;20041;-35
2022/02/24 09:53:38;;;;;;;5.07;2.70;;;7.20;99.90;;;;;;5047655;28;20119;-39
2022/02/24 09:56:05;;;;;;;5.38;3.20;;;7.30;99.90;;;;;;5041409;28;20033;-40
2022/02/24 09:58:31;;;;;;;4.20;2.92;;;7.40;99.90;;;;;;5042454;28;20021;-39
2022/02/24 10:00:59;;;;;;;6.07;3.10;;;7.50;99.90;;;;;;5045494;28;20175;-37
2022/02/24 10:03:35;;;;;;;4.65;3.45;;;7.60;99.90;;;;;;5048922;28;20033;-37
2022/02/24 10:06:02;;;;;;;3.05;2.42;;;7.60;99.90;;;;;;5044678;28;20678;-39
2022/02/24 10:08:31;;;;;;;2.33;1.77;;;7.80;99.90;;;;;;5047677;28;20060;-37
2022/02/24 10:10:58;;;;;;;5.53;3.08;;;8.00;99.90;;;;;;5042174;28;20033;-36
2022/02/24 10:13:25;;;;;;;2.15;1.95;;;8.20;99.90;;;;;;5048566;28;20370;-39
2022/02/24 10:15:55;;;;;;;3.22;2.35;;;8.30;99.90;;;;;;5057512;28;20024;-38
2022/02/24 10:18:24;;;;;;;3.78;2.40;;;8.40;99.90;;;;;;5043823;28;20028;-37
2022/02/24 10:21:01;;;;;;;2.25;2.03;;;8.30;99.90;;;;;;5047473;28;20412;-40
2022/02/24 10:23:35;;;;;;;3.30;2.10;;;8.40;99.90;;;;;;5038714;28;20030;-39
2022/02/24 10:26:09;;;;;;;4.60;3.22;;;8.70;99.90;;;;;;5043982;28;20112;-39
2022/02/24 10:28:38;;;;;;;3.58;2.83;;;8.90;99.90;;;;;;5042269;28;20037;-39
2022/02/24 10:31:04;;;;;;;1.95;1.83;;;9.10;99.90;;;;;;5032744;28;20037;-38
2022/02/24 10:33:31;;;;;;;2.70;2.17;;;9.20;99.90;;;;;;5045094;28;20024;-39
2022/02/24 10:36:17;;;;;;;2.75;2.17;;;9.30;99.90;;;;;;5045163;28;20032;-37
2022/02/24 10:38:45;;;;;;;2.40;2.20;;;9.30;99.90;;;;;;5045611;28;20021;-38
2022/02/24 10:41:11;;;;;;;3.38;2.42;;;9.50;99.90;;;;;;5038744;28;20048;-37
2022/02/24 10:43:39;;;;;;;4.88;2.22;;;9.50;99.90;;;;;;5040839;28;20021;-39
2022/02/24 10:46:22;;;;;;;3.90;1.90;;;9.50;99.90;;;;;;5046656;28;20112;-40
2022/02/24 10:48:57;;;;;;;4.47;2.40;;;9.60;99.90;;;;;;5047131;28;20397;-38
2022/02/24 10:51:30;;;;;;;2.42;2.17;;;9.60;99.90;;;;;;5039677;28;20481;-38
2022/02/24 10:54:04;;;;;;;2.03;1.83;;;9.70;99.90;;;;;;5048337;28;20123;-39
2022/02/24 10:56:32;;;;;;;2.17;1.88;;;9.80;99.90;;;;;;5044884;28;20029;-39
2022/02/24 10:58:58;;;;;;;2.85;2.60;;;10.00;99.90;;;;;;5043914;28;20040;-39
2022/02/24 11:01:26;;;;;;;4.38;2.10;;;10.00;99.90;;;;;;5042335;28;20666;-40
2022/02/24 11:04:04;;;;;;;2.30;2.10;;;10.20;99.90;;;;;;5042767;28;20025;-39
2022/02/24 11:06:36;;;;;;;2.00;1.90;;;10.30;99.90;;;;;;5045056;28;20025;-36
2022/02/24 11:09:04;;;;;;;1.77;1.58;;;10.30;99.90;;;;;;5038818;28;20021;-39
2022/02/24 11:11:36;;;;;;;2.40;1.90;;;10.40;99.90;;;;;;5046097;28;20960;-39
2022/02/24 11:14:05;;;;;;;2.10;1.60;;;10.50;99.90;;;;;;5038856;28;20040;-40
2022/02/24 11:16:32;;;;;;;6.28;1.40;;;10.50;99.90;;;;;;5056822;28;20025;-39
2022/02/24 11:18:58;;;;;;;3.83;1.75;;;10.60;99.00;;;;;;5050284;28;20029;-38
2022/02/24 11:21:25;;;;;;;3.55;1.65;;;10.60;99.90;;;;;;5041683;28;20535;-38
2022/02/24 11:23:52;;;;;;;1.73;1.60;;;10.80;99.90;;;;;;5050773;28;20033;-39
2022/02/24 11:26:20;;;;;;;2.22;1.30;;;10.80;99.90;;;;;;5041898;28;20099;-39
2022/02/24 11:29:02;;;;;;;;;;;11.00;99.90;;;;;;5040794;28;21616;-40
2022/02/24 11:31:52;;;;;;;3.67;1.27;;;11.10;99.50;;;;;;5043468;28;19912;-38
2022/02/24 11:34:56;;;;;;;1.77;1.35;;;11.00;99.50;;;;;;5047267;28;20441;-37
2022/02/24 11:37:22;;;;;;;1.52;1.42;;;11.10;99.90;;;;;;5046627;28;20060;-37
2022/02/24 11:39:47;;;;;;;2.92;1.48;;;11.40;99.90;;;;;;5045015;28;20063;-37
2022/02/24 11:42:23;;;;;;;1.25;1.00;;;11.40;99.50;;;;;;5051267;28;20036;-39
2022/02/24 11:44:49;;;;;;;1.70;1.20;;;11.60;95.00;;;;;;5044188;28;20064;-36
2022/02/24 11:47:15;;;;;;;2.80;1.90;;;11.70;92.90;;;;;;5045368;28;20055;-40
2022/02/24 11:49:59;;;;;;;2.72;1.35;;;11.90;92.50;;;;;;5047374;28;20057;-38
2022/02/24 11:52:31;;;;;;;2.38;1.02;;;12.00;89.40;;;;;;5039319;28;20025;-39
2022/02/24 11:54:59;;;;;;;1.42;1.33;;;12.00;92.70;;;;;;5069691;28;20025;-37
2022/02/24 11:57:24;;;;;;;1.45;1.35;;;12.00;91.50;;;;;;5041978;28;20025;-38
2022/02/24 11:59:54;;;;;;;1.05;0.95;;;11.90;90.50;;;;;;5044788;28;20072;-39
2022/02/24 12:02:20;;;;;;;1.67;1.17;;;11.90;86.20;;;;;;5038557;28;20116;-37
2022/02/24 12:04:47;;;;;;;1.30;1.20;;;11.80;92.30;;;;;;5040463;28;20087;-39
2022/02/24 12:07:15;;;;;;;1.05;1.00;;;12.00;92.50;;;;;;5037713;28;20033;-39
2022/02/24 12:09:41;;;;;;;0.80;0.80;;;12.10;88.80;;;;;;5044985;28;20124;-39
2022/02/24 12:12:23;;;;;;;1.40;1.30;;;12.10;93.00;;;;;;5034190;28;20059;-36
2022/02/24 12:14:51;;;;;;;1.00;1.00;;;12.10;91.70;;;;;;5035726;28;20069;-38
2022/02/24 12:17:19;;;;;;;1.17;1.05;;;12.10;88.60;;;;;;5040963;28;20033;-39
2022/02/24 12:19:56;;;;;;;3.10;1.20;;;12.10;88.60;;;;;;5042773;28;20547;-37
2022/02/24 12:22:44;;;;;;;0.90;0.88;;;12.00;90.30;;;;;;5044962;28;20028;-39
2022/02/24 12:25:25;;;;;;;0.73;0.73;;;12.30;86.60;;;;;;5041422;28;20024;-37
2022/02/24 12:28:05;;;;;;;0.93;0.93;;;12.30;83.60;;;;;;5034827;28;20090;-39
2022/02/24 12:30:36;;;;;;;1.70;0.85;;;12.40;87.00;;;;;;5036578;28;20068;-38
2022/02/24 12:33:13;;;;;;;2.63;1.17;;;12.30;88.40;;;;;;5043389;28;20120;-39
2022/02/24 12:35:42;;;;;;;0.68;0.68;;;12.50;80.10;;;;;;5044359;28;20025;-39
2022/02/24 12:38:11;;;;;;;0.70;0.70;;;12.60;80.10;;;;;;5043609;28;20025;-39
2022/02/24 12:40:39;;;;;;;1.20;1.10;;;12.50;78.30;;;;;;5037911;28;20505;-37
2022/02/24 12:43:11;;;;;;;0.98;0.98;;;12.50;81.50;;;;;;5041081;28;20025;-39
2022/02/24 12:45:39;;;;;;;1.30;0.93;;;12.60;79.80;;;;;;5037731;28;20108;-39
2022/02/24 12:48:11;;;;;;;0.88;0.88;;;12.80;75.00;;;;;;5040409;28;20438;-37
2022/02/24 12:51:03;;;;;;;1.23;1.13;;;12.90;67.30;;;;;;5041013;28;20032;-39